createdAt,value
2019-04-14T00:01:32.743Z,101308.20
2019-04-14T00:04:12.333Z,101314.44
2019-04-14T00:06:44.022Z,101313.88
2019-04-14T00:09:16.340Z,101307.88
2019-04-14T00:11:46.272Z,101307.32
2019-04-14T00:14:16.390Z,101307.56
2019-04-14T00:16:46.735Z,101299.69
2019-04-14T00:19:17.350Z,101306.20
2019-04-14T00:21:47.627Z,101304.00
2019-04-14T00:24:18.443Z,101298.28
2019-04-14T00:26:48.803Z,101302.60
2019-04-14T00:29:19.302Z,101290.66
2019-04-14T00:31:51.928Z,101295.00
2019-04-14T00:34:38.017Z,101289.02
2019-04-14T00:37:14.108Z,101291.17
2019-04-14T00:39:46.376Z,101288.45
2019-04-14T00:42:19.133Z,101278.07
2019-04-14T00:44:51.819Z,101287.89
2019-04-14T00:47:35.396Z,101280.50
2019-04-14T00:50:08.010Z,101276.98
2019-04-14T00:52:37.656Z,101275.34
2019-04-14T00:55:08.163Z,101282.94
2019-04-14T00:57:37.729Z,101279.95
2019-04-14T01:00:08.749Z,101279.95
2019-04-14T01:02:38.526Z,101282.66
2019-04-14T01:05:08.960Z,101281.02
2019-04-14T01:07:39.166Z,101282.94
2019-04-14T01:10:10.297Z,101279.42
2019-04-14T01:12:40.931Z,101284.58
2019-04-14T01:15:11.514Z,101280.50
2019-04-14T01:17:41.765Z,101282.45
2019-04-14T01:20:12.503Z,101280.55
2019-04-14T01:22:42.481Z,101273.23
2019-04-14T01:25:12.873Z,101275.39
2019-04-14T01:27:42.917Z,101280.58
2019-04-14T01:30:13.568Z,101274.08
2019-04-14T01:32:43.645Z,101274.08
2019-04-14T01:35:13.840Z,101279.23
2019-04-14T01:37:44.091Z,101281.70
2019-04-14T01:40:14.214Z,101283.06
2019-04-14T01:42:44.193Z,101285.55
2019-04-14T01:45:16.469Z,101288.82
2019-04-14T01:47:46.734Z,101289.94
2019-04-14T01:50:19.128Z,101289.15
2019-04-14T01:52:52.289Z,101286.75
2019-04-14T01:55:39.528Z,101291.94
2019-04-14T01:58:14.390Z,101288.98
2019-04-14T02:00:46.689Z,101294.73
2019-04-14T02:03:17.054Z,101293.94
2019-04-14T02:05:47.483Z,101296.13
2019-04-14T02:08:17.754Z,101298.61
2019-04-14T02:10:47.817Z,101292.38
2019-04-14T02:13:18.163Z,101294.84
2019-04-14T02:15:48.507Z,101299.23
2019-04-14T02:18:18.579Z,101300.08
2019-04-14T02:20:49.035Z,101304.70
2019-04-14T02:23:19.263Z,101291.95
2019-04-14T02:25:49.378Z,101299.30
2019-04-14T02:28:19.922Z,101302.05
2019-04-14T02:31:00.270Z,101298.81
2019-04-14T02:33:44.447Z,101294.45
2019-04-14T02:36:22.012Z,101293.12
2019-04-14T02:38:59.001Z,101288.25
2019-04-14T02:41:43.582Z,101283.64
2019-04-14T02:44:01.572Z,101283.64
2019-04-14T02:46:20.089Z,101282.30
2019-04-14T02:49:03.920Z,101285.86
2019-04-14T02:51:27.575Z,101283.69
2019-04-14T02:53:59.232Z,101283.16
2019-04-14T02:59:19.765Z,101293.55
2019-04-14T03:03:56.479Z,101294.40
2019-04-14T03:06:52.189Z,101285.73
2019-04-14T03:09:12.590Z,101287.65
2019-04-14T03:11:43.277Z,101281.67
2019-04-14T03:14:07.970Z,101280.61
2019-04-14T03:19:59.161Z,101287.44
2019-04-14T03:22:32.927Z,101292.08
2019-04-14T03:24:55.878Z,101292.91
2019-04-14T03:30:35.788Z,101289.92
2019-04-14T03:37:54.151Z,101292.41
2019-04-14T03:40:28.445Z,101292.16
2019-04-14T03:42:59.640Z,101288.06
2019-04-14T03:45:37.261Z,101295.97
2019-04-14T03:48:31.580Z,101294.61
2019-04-14T03:50:28.172Z,101299.79
2019-04-14T03:53:12.011Z,101296.54
2019-04-14T03:55:21.574Z,101297.34
2019-04-14T03:57:36.702Z,101296.81
2019-04-14T04:00:07.464Z,101300.09
2019-04-14T04:02:38.024Z,101305.25
2019-04-14T04:05:08.543Z,101305.00
2019-04-14T04:07:38.862Z,101303.63
2019-04-14T04:10:11.349Z,101302.85
2019-04-14T04:12:42.115Z,101308.84
2019-04-14T04:15:12.579Z,101302.86
2019-04-14T04:17:53.703Z,101305.05
2019-04-14T04:20:37.104Z,101301.78
2019-04-14T04:23:09.464Z,101299.05
2019-04-14T04:25:46.945Z,101306.95
2019-04-14T04:28:30.090Z,101311.06
2019-04-14T04:31:05.353Z,101310.23
2019-04-14T04:33:39.414Z,101311.37
2019-04-14T04:36:22.494Z,101313.27
2019-04-14T04:38:57.506Z,101315.45
2019-04-14T04:41:27.525Z,101314.11
2019-04-14T04:43:58.245Z,101313.00
2019-04-14T04:46:28.784Z,101318.19
2019-04-14T04:49:09.087Z,101325.00
2019-04-14T04:51:29.461Z,101328.83
2019-04-14T04:53:59.445Z,101327.50
2019-04-14T04:56:29.733Z,101329.95
2019-04-14T04:58:59.281Z,101331.31
2019-04-14T05:01:29.585Z,101333.77
2019-04-14T05:04:00.255Z,101336.50
2019-04-14T05:07:01.491Z,101333.50
2019-04-14T05:09:38.580Z,101337.31
2019-04-14T05:12:26.679Z,101340.59
2019-04-14T05:14:58.852Z,101344.41
2019-04-14T05:17:33.998Z,101341.39
2019-04-14T05:20:05.213Z,101339.48
2019-04-14T05:22:35.403Z,101336.75
2019-04-14T05:25:07.807Z,101341.13
2019-04-14T05:27:38.661Z,101341.14
2019-04-14T05:30:09.112Z,101346.86
2019-04-14T05:32:39.113Z,101344.94
2019-04-14T05:35:09.630Z,101345.47
2019-04-14T05:37:40.077Z,101341.09
2019-04-14T05:40:10.277Z,101348.20
2019-04-14T05:42:40.714Z,101345.71
2019-04-14T05:45:11.194Z,101352.00
2019-04-14T05:47:41.491Z,101344.08
2019-04-14T05:50:11.746Z,101345.14
2019-04-14T05:52:41.183Z,101345.13
2019-04-14T05:55:11.303Z,101354.41
2019-04-14T05:57:41.635Z,101351.13
2019-04-14T06:00:14.526Z,101350.81
2019-04-14T06:02:44.325Z,101356.30
2019-04-14T06:05:14.549Z,101351.61
2019-04-14T06:07:44.103Z,101352.69
2019-04-14T06:10:13.676Z,101352.96
2019-04-14T06:12:43.157Z,101345.83
2019-04-14T06:15:12.871Z,101357.30
2019-04-14T06:17:42.381Z,101349.64
2019-04-14T06:20:12.282Z,101350.20
2019-04-14T06:22:41.785Z,101349.37
2019-04-14T06:25:11.395Z,101353.47
2019-04-14T06:27:40.885Z,101357.30
2019-04-14T06:30:19.353Z,101360.03
2019-04-14T06:32:49.900Z,101352.91
2019-04-14T06:35:21.027Z,101355.34
2019-04-14T06:37:54.586Z,101363.52
2019-04-14T06:40:25.808Z,101350.09
2019-04-14T06:42:55.285Z,101355.80
2019-04-14T06:45:24.786Z,101355.77
2019-04-14T06:47:54.256Z,101352.70
2019-04-14T06:50:23.710Z,101357.03
2019-04-14T06:52:53.232Z,101357.27
2019-04-14T06:55:22.718Z,101363.77
2019-04-14T06:57:52.201Z,101357.99
2019-04-14T07:00:21.761Z,101357.11
2019-04-14T07:02:51.248Z,101359.23
2019-04-14T07:05:20.716Z,101364.94
2019-04-14T07:07:56.938Z,101365.98
2019-04-14T07:10:21.474Z,101367.31
2019-04-14T07:13:13.742Z,101368.10
2019-04-14T07:15:41.495Z,101369.69
2019-04-14T07:18:12.160Z,101369.06
2019-04-14T07:20:47.491Z,101374.19
2019-04-14T07:23:17.070Z,101380.98
2019-04-14T07:25:46.582Z,101375.48
2019-04-14T07:28:16.067Z,101372.96
2019-04-14T07:30:45.345Z,101375.08
2019-04-14T07:33:19.376Z,101375.86
2019-04-14T07:35:56.295Z,101373.59
2019-04-14T07:38:27.623Z,101372.16
2019-04-14T07:41:10.460Z,101373.47
2019-04-14T07:43:59.729Z,101374.25
2019-04-14T07:46:42.677Z,101361.80
2019-04-14T07:49:11.950Z,101363.93
2019-04-14T07:51:43.061Z,101375.36
2019-04-14T07:54:22.876Z,101371.11
2019-04-14T07:56:54.094Z,101375.40
2019-04-14T07:59:31.070Z,101378.58
2019-04-14T08:02:02.256Z,101376.55
2019-04-14T08:04:33.470Z,101369.88
2019-04-14T08:07:03.052Z,101367.89
2019-04-14T08:09:32.586Z,101372.50
2019-04-14T08:12:02.150Z,101369.69
2019-04-14T08:14:31.703Z,101369.86
2019-04-14T08:17:01.236Z,101365.67
2019-04-14T08:19:30.677Z,101372.72
2019-04-14T08:22:00.235Z,101369.89
2019-04-14T08:24:29.803Z,101376.67
2019-04-14T08:26:59.319Z,101371.36
2019-04-14T08:29:28.883Z,101374.88
2019-04-14T08:31:58.371Z,101376.16
2019-04-14T08:34:27.892Z,101380.20
2019-04-14T08:36:57.365Z,101377.66
2019-04-14T08:39:26.919Z,101374.83
2019-04-14T08:42:01.216Z,101381.27
2019-04-14T08:44:39.593Z,101376.70
2019-04-14T08:47:19.942Z,101381.25
2019-04-14T08:49:52.249Z,101383.30
2019-04-14T08:52:34.959Z,101386.47
2019-04-14T08:55:16.276Z,101385.51
2019-04-14T08:57:45.555Z,101377.99
2019-04-14T09:00:19.346Z,101383.04
2019-04-14T09:02:57.587Z,101382.91
2019-04-14T09:06:05.847Z,101377.52
2019-04-14T09:08:35.185Z,101375.91
2019-04-14T09:11:06.297Z,101381.12
2019-04-14T09:13:35.774Z,101378.58
2019-04-14T09:16:05.478Z,101384.33
2019-04-14T09:18:35.006Z,101371.59
2019-04-14T09:21:04.671Z,101378.95
2019-04-14T09:23:34.312Z,101381.66
2019-04-14T09:26:03.869Z,101381.92
2019-04-14T09:28:33.418Z,101378.16
2019-04-14T09:31:02.982Z,101376.16
2019-04-14T09:33:32.472Z,101374.64
2019-04-14T09:36:01.988Z,101377.52
2019-04-14T09:38:31.552Z,101370.50
2019-04-14T09:41:01.063Z,101374.20
2019-04-14T09:43:30.654Z,101373.52
2019-04-14T09:46:00.232Z,101365.66
2019-04-14T09:48:49.079Z,101380.45
2019-04-14T09:51:18.562Z,101377.34
2019-04-14T09:53:48.189Z,101369.50
2019-04-14T09:56:17.810Z,101376.02
2019-04-14T09:58:47.409Z,101377.50
2019-04-14T10:01:16.925Z,101373.17
2019-04-14T10:03:46.478Z,101380.33
2019-04-14T10:06:15.963Z,101376.00
2019-04-14T10:08:45.485Z,101366.14
2019-04-14T10:11:15.047Z,101371.51
2019-04-14T10:13:44.656Z,101371.02
2019-04-14T10:16:14.202Z,101370.33
2019-04-14T10:18:43.707Z,101368.48
2019-04-14T10:21:17.617Z,101353.70
2019-04-14T10:23:44.590Z,101369.13
2019-04-14T10:26:14.196Z,101375.48
2019-04-14T10:28:43.677Z,101364.93
2019-04-14T10:31:13.250Z,101365.08
2019-04-14T10:33:42.775Z,101371.34
2019-04-14T10:36:12.291Z,101367.62
2019-04-14T10:38:41.820Z,101376.83
2019-04-14T10:41:11.347Z,101364.48
2019-04-14T10:43:40.951Z,101364.58
2019-04-14T10:46:10.512Z,101370.98
2019-04-14T10:48:40.024Z,101381.32
2019-04-14T10:51:09.499Z,101369.86
2019-04-14T10:53:39.084Z,101366.94
2019-04-14T10:56:08.606Z,101361.48
2019-04-14T10:58:38.081Z,101363.88
2019-04-14T11:01:07.670Z,101371.45
2019-04-14T11:03:37.198Z,101372.66
2019-04-14T11:06:08.490Z,101377.47
2019-04-14T11:08:37.999Z,101372.25
2019-04-14T11:11:07.559Z,101360.78
2019-04-14T11:13:37.177Z,101371.33
2019-04-14T11:16:06.699Z,101366.21
2019-04-14T11:18:36.199Z,101368.32
2019-04-14T11:21:05.840Z,101369.77
2019-04-14T11:23:35.334Z,101365.20
2019-04-14T11:26:04.981Z,101355.34
2019-04-14T11:28:34.566Z,101363.46
2019-04-14T11:31:04.340Z,101360.44
2019-04-14T11:33:51.372Z,101349.92
2019-04-14T11:36:34.086Z,101353.38
2019-04-14T11:39:08.494Z,101350.05
2019-04-14T11:41:37.971Z,101351.34
2019-04-14T11:44:07.513Z,101354.08
2019-04-14T11:46:37.011Z,101361.08
2019-04-14T11:49:06.646Z,101351.70
2019-04-14T11:51:36.204Z,101347.97
2019-04-14T11:54:05.966Z,101360.19
2019-04-14T11:56:35.521Z,101355.02
2019-04-14T11:59:05.102Z,101359.80
2019-04-14T12:01:34.446Z,101358.17
2019-04-14T12:04:21.646Z,101363.34
2019-04-14T12:06:56.948Z,101359.03
2019-04-14T12:09:34.264Z,101356.31
2019-04-14T12:12:05.265Z,101344.17
2019-04-14T12:14:34.771Z,101353.46
2019-04-14T12:17:04.239Z,101353.02
2019-04-14T12:19:33.756Z,101351.19
2019-04-14T12:22:08.562Z,101369.09
2019-04-14T12:24:34.714Z,101360.69
2019-04-14T12:27:04.191Z,101361.84
2019-04-14T12:29:34.758Z,101358.13
2019-04-14T12:32:04.862Z,101366.44
2019-04-14T12:34:34.415Z,101358.13
2019-04-14T12:37:04.088Z,101360.19
2019-04-14T12:39:33.627Z,101361.57
2019-04-14T12:42:07.320Z,101358.09
2019-04-14T12:44:41.688Z,101362.25
2019-04-14T12:47:29.148Z,101363.52
2019-04-14T12:50:06.072Z,101350.36
2019-04-14T12:52:35.562Z,101362.78
2019-04-14T12:55:07.160Z,101353.11
2019-04-14T12:57:47.334Z,101359.68
2019-04-14T13:00:19.558Z,101365.58
2019-04-14T13:02:50.772Z,101359.66
2019-04-14T13:05:20.402Z,101364.48
2019-04-14T13:07:49.878Z,101357.67
2019-04-14T13:10:19.528Z,101364.22
2019-04-14T13:12:49.013Z,101361.80
2019-04-14T13:15:18.588Z,101356.02
2019-04-14T13:17:48.126Z,101339.39
2019-04-14T13:20:17.797Z,101341.02
2019-04-14T13:22:47.425Z,101344.27
2019-04-14T13:25:17.040Z,101338.95
2019-04-14T13:27:46.598Z,101342.64
2019-04-14T13:30:17.819Z,101348.39
2019-04-14T13:32:47.295Z,101355.25
2019-04-14T13:35:16.784Z,101341.60
2019-04-14T13:37:46.314Z,101344.48
2019-04-14T13:40:16.022Z,101333.96
2019-04-14T13:42:45.532Z,101336.41
2019-04-14T13:45:15.073Z,101353.27
2019-04-14T13:47:44.567Z,101351.42
2019-04-14T13:50:14.261Z,101337.64
2019-04-14T13:52:47.054Z,101346.40
2019-04-14T13:55:15.114Z,101348.22
2019-04-14T13:57:44.626Z,101347.03
2019-04-14T14:00:15.117Z,101342.17
2019-04-14T14:02:44.778Z,101346.09
2019-04-14T14:05:14.446Z,101334.77
2019-04-14T14:07:43.937Z,101333.03
2019-04-14T14:10:13.920Z,101338.72
2019-04-14T14:12:47.893Z,101325.81
2019-04-14T14:15:34.983Z,101334.28
2019-04-14T14:18:07.129Z,101328.86
2019-04-14T14:20:43.457Z,101332.58
2019-04-14T14:23:14.573Z,101323.59
2019-04-14T14:25:51.508Z,101326.27
2019-04-14T14:28:20.998Z,101323.38
2019-04-14T14:30:50.570Z,101324.68
2019-04-14T14:33:20.098Z,101317.90
2019-04-14T14:35:49.616Z,101332.23
2019-04-14T14:38:19.181Z,101314.45
2019-04-14T14:40:49.358Z,101318.61
2019-04-14T14:43:18.917Z,101320.55
2019-04-14T14:45:50.136Z,101321.94
2019-04-14T14:48:24.096Z,101315.83
2019-04-14T14:50:57.771Z,101326.45
2019-04-14T14:53:27.357Z,101323.20
2019-04-14T14:55:56.939Z,101321.76
2019-04-14T14:58:26.553Z,101323.47
2019-04-14T15:00:56.493Z,101326.30
2019-04-14T15:03:26.156Z,101324.40
2019-04-14T15:05:55.650Z,101320.44
2019-04-14T15:08:25.203Z,101321.79
2019-04-14T15:10:54.756Z,101307.94
2019-04-14T15:13:24.227Z,101335.40
2019-04-14T15:15:53.813Z,101331.25
2019-04-14T15:18:23.273Z,101324.87
2019-04-14T15:20:52.777Z,101327.77
2019-04-14T15:23:25.326Z,101335.59
2019-04-14T15:25:53.490Z,101328.20
2019-04-14T15:28:23.008Z,101336.03
2019-04-14T15:30:52.518Z,101340.27
2019-04-14T15:33:22.016Z,101343.70
2019-04-14T15:35:51.612Z,101347.94
2019-04-14T15:38:21.190Z,101341.13
2019-04-14T15:40:50.753Z,101336.23
2019-04-14T15:43:20.265Z,101344.97
2019-04-14T15:45:49.806Z,101351.17
2019-04-14T15:48:19.297Z,101360.46
2019-04-14T15:50:48.931Z,101363.09
2019-04-14T15:53:19.387Z,101370.20
2019-04-14T15:55:48.955Z,101363.68
2019-04-14T15:58:26.983Z,101369.64
2019-04-14T16:01:14.578Z,101367.54
2019-04-14T16:03:45.704Z,101370.48
2019-04-14T16:06:35.143Z,101379.31
2019-04-14T16:09:23.645Z,101381.67
2019-04-14T16:12:03.643Z,101393.23
2019-04-14T16:14:40.282Z,101392.45
2019-04-14T16:17:27.629Z,101399.30
2019-04-14T16:20:07.588Z,101394.59
2019-04-14T16:22:38.988Z,101392.31
2019-04-14T16:25:08.438Z,101396.73
2019-04-14T16:27:39.572Z,101393.41
2019-04-14T16:30:14.037Z,101401.86
2019-04-14T16:32:48.290Z,101398.37
2019-04-14T16:35:19.460Z,101403.90
2019-04-14T16:37:48.938Z,101410.22
2019-04-14T16:40:18.487Z,101410.16
2019-04-14T16:42:47.985Z,101413.89
2019-04-14T16:45:17.710Z,101419.26
2019-04-14T16:47:47.206Z,101418.61
2019-04-14T16:50:16.790Z,101417.95
2019-04-14T16:52:50.611Z,101425.49
2019-04-14T16:55:21.753Z,101423.73
2019-04-14T16:58:08.690Z,101423.87
2019-04-14T17:00:42.602Z,101434.28
2019-04-14T17:03:12.103Z,101437.77
2019-04-14T17:05:41.822Z,101444.03
2019-04-14T17:08:11.398Z,101439.81
2019-04-14T17:10:40.943Z,101449.50
2019-04-14T17:13:10.480Z,101447.45
2019-04-14T17:15:45.874Z,101443.33
2019-04-14T17:18:17.055Z,101447.47
2019-04-14T17:21:04.385Z,101452.98
2019-04-14T17:23:38.093Z,101446.58
2019-04-14T17:26:18.133Z,101448.37
2019-04-14T17:28:49.346Z,101457.86
2019-04-14T17:31:23.336Z,101453.47
2019-04-14T17:33:57.155Z,101453.94
2019-04-14T17:36:38.425Z,101451.46
2019-04-14T17:39:13.407Z,101454.84
2019-04-14T17:41:56.694Z,101461.75
2019-04-14T17:44:33.887Z,101466.30
2019-04-14T17:47:21.123Z,101465.30
2019-04-14T17:49:54.777Z,101476.75
2019-04-14T17:52:44.147Z,101469.75
2019-04-14T17:55:15.627Z,101475.38
2019-04-14T17:57:55.350Z,101481.14
2019-04-14T18:00:26.583Z,101476.59
2019-04-14T18:02:55.829Z,101480.16
2019-04-14T18:05:32.800Z,101495.84
2019-04-14T18:08:03.892Z,101491.64
2019-04-14T18:10:37.717Z,101497.34
2019-04-14T18:13:26.948Z,101498.55
2019-04-14T18:15:58.108Z,101500.35
2019-04-14T18:18:41.207Z,101502.73
2019-04-14T18:21:11.646Z,101506.62
2019-04-14T18:23:41.286Z,101508.61
2019-04-14T18:26:10.893Z,101511.35
2019-04-14T18:28:44.491Z,101513.80
2019-04-14T18:31:25.892Z,101516.78
2019-04-14T18:33:57.043Z,101515.59
2019-04-14T18:36:34.042Z,101517.44
2019-04-14T18:39:18.579Z,101518.17
2019-04-14T18:41:52.392Z,101507.34
2019-04-14T18:44:32.146Z,101511.93
2019-04-14T18:47:19.310Z,101518.66
2019-04-14T18:49:50.427Z,101516.59
2019-04-14T18:52:21.590Z,101525.52
2019-04-14T18:54:55.302Z,101532.48
2019-04-14T18:57:26.608Z,101538.11
2019-04-14T18:59:57.727Z,101539.30
2019-04-14T19:02:27.481Z,101540.49
2019-04-14T19:04:57.013Z,101545.80
2019-04-14T19:07:26.715Z,101548.59
2019-04-14T19:09:56.225Z,101551.14
2019-04-14T19:12:36.238Z,101563.56
2019-04-14T19:15:15.030Z,101560.09
2019-04-14T19:17:49.209Z,101569.19
2019-04-14T19:20:20.443Z,101570.89
2019-04-14T19:22:50.027Z,101576.70
2019-04-14T19:25:19.649Z,101575.39
2019-04-14T19:27:49.223Z,101575.41
2019-04-14T19:30:18.988Z,101575.45
2019-04-14T19:32:48.662Z,101581.52
2019-04-14T19:35:18.231Z,101588.40
2019-04-14T19:37:47.775Z,101591.19
2019-04-14T19:40:17.458Z,101594.47
2019-04-14T19:42:46.920Z,101596.16
2019-04-14T19:45:16.632Z,101599.22
2019-04-14T19:47:46.144Z,101603.03
2019-04-14T19:50:15.799Z,101600.34
2019-04-14T19:52:45.248Z,101611.59
2019-04-14T19:55:20.490Z,101604.20
2019-04-14T19:57:47.143Z,101603.41
2019-04-14T20:00:17.610Z,101602.08
2019-04-14T20:02:47.071Z,101603.77
2019-04-14T20:05:16.688Z,101606.52
2019-04-14T20:07:46.132Z,101607.36
2019-04-14T20:10:15.809Z,101614.27
2019-04-14T20:12:45.356Z,101616.21
2019-04-14T20:15:16.643Z,101613.21
2019-04-14T20:17:45.969Z,101614.05
2019-04-14T20:20:17.213Z,101620.89
2019-04-14T20:23:03.554Z,101624.20
2019-04-14T20:25:34.653Z,101626.98
2019-04-14T20:28:08.841Z,101630.83
2019-04-14T20:30:54.661Z,101634.69
2019-04-14T20:33:24.393Z,101633.09
2019-04-14T20:35:54.022Z,101635.57
2019-04-14T20:38:23.552Z,101649.58
2019-04-14T20:40:53.239Z,101638.92
2019-04-14T20:43:22.766Z,101641.37
2019-04-14T20:45:52.328Z,101645.78
2019-04-14T20:48:21.846Z,101652.38
2019-04-14T20:50:51.398Z,101648.56
2019-04-14T20:53:21.009Z,101663.11
2019-04-14T20:55:50.549Z,101664.52
2019-04-14T20:58:20.062Z,101667.83
2019-04-14T21:00:49.699Z,101666.75
2019-04-14T21:03:37.164Z,101661.30
2019-04-14T21:06:26.559Z,101656.39
2019-04-14T21:08:56.499Z,101661.91
2019-04-14T21:11:33.078Z,101658.92
2019-04-14T21:14:22.131Z,101651.28
2019-04-14T21:16:53.248Z,101646.39
2019-04-14T21:19:24.342Z,101648.86
2019-04-14T21:21:53.676Z,101646.71
2019-04-14T21:24:24.831Z,101652.52
2019-04-14T21:27:14.437Z,101651.70
2019-04-14T21:29:48.374Z,101648.71
2019-04-14T21:32:19.634Z,101646.30
2019-04-14T21:34:54.722Z,101650.95
2019-04-14T21:37:29.590Z,101649.07
2019-04-14T21:40:06.733Z,101645.25
2019-04-14T21:42:36.190Z,101646.63
2019-04-14T21:45:08.611Z,101653.47
2019-04-14T21:47:38.163Z,101651.28
2019-04-14T21:50:08.587Z,101647.47
2019-04-14T21:52:42.730Z,101645.84
2019-04-14T21:55:12.428Z,101648.87
2019-04-14T21:57:46.501Z,101652.70
2019-04-14T22:00:28.154Z,101645.88
2019-04-14T22:03:15.709Z,101643.39
2019-04-14T22:05:48.120Z,101651.34
2019-04-14T22:08:25.413Z,101643.15
2019-04-14T22:11:00.202Z,101647.80
2019-04-14T22:13:29.670Z,101649.72
2019-04-14T22:15:59.380Z,101656.02
2019-04-14T22:18:28.897Z,101644.27
2019-04-14T22:20:58.449Z,101645.36
2019-04-14T22:23:27.915Z,101642.08
2019-04-14T22:25:57.395Z,101651.92
2019-04-14T22:28:27.013Z,101649.19
2019-04-14T22:30:56.525Z,101658.76
2019-04-14T22:33:26.131Z,101656.56
2019-04-14T22:35:55.697Z,101654.65
2019-04-14T22:38:25.232Z,101663.38
2019-04-14T22:40:54.792Z,101657.64
2019-04-14T22:43:24.305Z,101660.64
2019-04-14T22:45:53.833Z,101663.91
2019-04-14T22:48:23.403Z,101657.59
2019-04-14T22:50:52.867Z,101666.60
2019-04-14T22:53:22.324Z,101678.91
2019-04-14T22:55:51.895Z,101669.59
2019-04-14T22:58:21.451Z,101675.03
2019-04-14T23:00:55.153Z,101680.77
2019-04-14T23:03:38.298Z,101675.80
2019-04-14T23:06:25.692Z,101674.42
2019-04-14T23:09:02.263Z,101681.52
2019-04-14T23:11:35.811Z,101682.56
2019-04-14T23:14:09.795Z,101682.83
2019-04-14T23:16:40.991Z,101671.28
2019-04-14T23:19:28.184Z,101670.45
2019-04-14T23:22:00.042Z,101661.10
2019-04-14T23:24:31.190Z,101660.27
2019-04-14T23:27:00.715Z,101662.74
2019-04-14T23:29:30.418Z,101665.48
2019-04-14T23:32:00.064Z,101664.11
2019-04-14T23:34:29.544Z,101668.22
2019-04-14T23:36:59.018Z,101669.32
2019-04-14T23:39:28.537Z,101673.16
2019-04-14T23:41:58.169Z,101677.27
2019-04-14T23:44:27.659Z,101674.53
2019-04-14T23:46:57.224Z,101676.17
2019-04-14T23:49:26.676Z,101677.81
2019-04-14T23:51:56.246Z,101677.24
2019-04-14T23:54:25.742Z,101683.56
2019-04-14T23:57:05.234Z,101684.09
2019-04-14T23:59:26.646Z,101695.59
